createdAt,value
2023-05-14T00:01:40.692Z,9.70
2023-05-14T00:04:08.143Z,11.25
2023-05-14T00:06:35.503Z,10.83
2023-05-14T00:09:02.976Z,11.07
2023-05-14T00:11:30.315Z,14.98
2023-05-14T00:13:57.642Z,16.27
2023-05-14T00:16:24.955Z,10.40
2023-05-14T00:18:52.441Z,15.37
2023-05-14T00:21:19.733Z,11.98
2023-05-14T00:23:47.044Z,11.38
2023-05-14T00:26:14.382Z,12.63
2023-05-14T00:28:44.483Z,13.57
2023-05-14T00:31:11.828Z,14.67
2023-05-14T00:33:39.142Z,11.75
2023-05-14T00:36:06.751Z,11.05
2023-05-14T00:38:34.818Z,12.13
2023-05-14T00:41:02.198Z,12.55
2023-05-14T00:43:29.564Z,13.50
2023-05-14T00:45:56.878Z,11.15
2023-05-14T00:48:24.618Z,11.13
2023-05-14T00:50:52.943Z,11.55
2023-05-14T00:53:20.492Z,14.35
2023-05-14T00:55:48.479Z,14.67
2023-05-14T00:58:15.795Z,11.93
2023-05-14T01:00:43.322Z,11.68
2023-05-14T01:03:10.917Z,13.25
2023-05-14T01:05:47.544Z,11.80
2023-05-14T01:08:38.096Z,13.07
2023-05-14T01:11:10.864Z,11.02
2023-05-14T01:13:49.583Z,12.65
2023-05-14T01:16:19.070Z,12.65
2023-05-14T01:18:47.598Z,13.05
2023-05-14T01:21:41.250Z,14.53
2023-05-14T01:24:08.913Z,12.88
2023-05-14T01:26:36.618Z,13.00
2023-05-14T01:29:08.952Z,12.98
2023-05-14T01:31:37.492Z,10.77
2023-05-14T01:34:05.694Z,11.63
2023-05-14T01:36:33.558Z,11.55
2023-05-14T01:39:01.686Z,12.98
2023-05-14T01:41:30.524Z,15.35
2023-05-14T01:43:58.015Z,14.40
2023-05-14T01:46:25.572Z,9.10
2023-05-14T01:48:52.869Z,12.75
2023-05-14T01:51:20.227Z,14.25
2023-05-14T01:53:47.563Z,12.95
2023-05-14T01:56:14.795Z,11.75
2023-05-14T01:58:42.147Z,12.23
2023-05-14T02:01:09.543Z,9.18
2023-05-14T02:03:36.987Z,12.10
2023-05-14T02:06:04.449Z,13.60
2023-05-14T02:08:31.807Z,14.52
2023-05-14T02:10:59.079Z,15.43
2023-05-14T02:13:26.957Z,10.32
2023-05-14T02:15:54.267Z,15.20
2023-05-14T02:18:21.775Z,9.93
2023-05-14T02:20:49.270Z,11.98
2023-05-14T02:23:17.781Z,10.73
2023-05-14T02:25:45.389Z,15.85
2023-05-14T02:28:12.734Z,12.85
2023-05-14T02:30:40.147Z,15.20
2023-05-14T02:33:07.497Z,13.48
2023-05-14T02:35:34.843Z,11.60
2023-05-14T02:38:02.121Z,13.05
2023-05-14T02:40:29.402Z,12.27
2023-05-14T02:42:57.187Z,10.57
2023-05-14T02:45:24.593Z,11.90
2023-05-14T02:47:51.947Z,15.33
2023-05-14T02:50:19.293Z,12.27
2023-05-14T02:52:46.599Z,10.65
2023-05-14T02:55:13.937Z,13.55
2023-05-14T02:57:41.269Z,14.18
2023-05-14T03:00:09.196Z,12.00
2023-05-14T03:02:37.031Z,11.27
2023-05-14T03:05:04.888Z,15.65
2023-05-14T03:07:32.189Z,10.63
2023-05-14T03:10:00.446Z,15.52
2023-05-14T03:12:27.874Z,10.67
2023-05-14T03:14:55.197Z,10.30
2023-05-14T03:17:23.276Z,14.55
2023-05-14T03:19:50.991Z,11.50
2023-05-14T03:22:18.281Z,15.73
2023-05-14T03:24:45.599Z,12.30
2023-05-14T03:27:12.867Z,13.82
2023-05-14T03:29:40.411Z,12.93
2023-05-14T03:32:07.962Z,12.30
2023-05-14T03:34:35.250Z,11.27
2023-05-14T03:37:02.681Z,9.20
2023-05-14T03:39:29.960Z,14.38
2023-05-14T03:41:58.933Z,14.55
2023-05-14T03:44:26.491Z,17.30
2023-05-14T03:46:53.886Z,11.90
2023-05-14T03:49:21.295Z,15.63
2023-05-14T03:51:48.581Z,11.65
2023-05-14T03:54:15.925Z,11.35
2023-05-14T03:56:44.677Z,10.65
2023-05-14T03:59:11.980Z,11.07
2023-05-14T04:01:39.213Z,11.73
2023-05-14T04:04:06.737Z,15.13
2023-05-14T04:06:34.440Z,14.30
2023-05-14T04:09:03.413Z,11.65
2023-05-14T04:11:30.727Z,12.38
2023-05-14T04:13:59.918Z,14.20
2023-05-14T04:16:27.299Z,13.20
2023-05-14T04:18:54.811Z,10.75
2023-05-14T04:21:22.169Z,14.55
2023-05-14T04:23:50.699Z,14.90
2023-05-14T04:26:18.489Z,15.90
2023-05-14T04:28:45.853Z,13.80
2023-05-14T04:31:13.239Z,12.93
2023-05-14T04:33:40.647Z,13.43
2023-05-14T04:36:08.333Z,11.73
2023-05-14T04:38:35.652Z,12.53
2023-05-14T04:41:02.989Z,13.27
2023-05-14T04:43:30.269Z,14.50
2023-05-14T04:45:57.731Z,12.23
2023-05-14T04:48:25.043Z,10.30
2023-05-14T04:50:52.405Z,10.80
2023-05-14T04:53:19.722Z,10.57
2023-05-14T04:55:46.955Z,9.88
2023-05-14T04:58:14.201Z,10.40
2023-05-14T05:00:41.939Z,14.02
2023-05-14T05:03:09.326Z,11.27
2023-05-14T05:05:36.858Z,13.75
2023-05-14T05:08:04.204Z,11.77
2023-05-14T05:10:31.530Z,10.88
2023-05-14T05:12:58.827Z,11.63
2023-05-14T05:15:26.656Z,11.63
2023-05-14T05:17:54.397Z,11.65
2023-05-14T05:20:21.896Z,9.75
2023-05-14T05:22:49.390Z,10.98
2023-05-14T05:25:16.669Z,11.60
2023-05-14T05:27:43.963Z,9.80
2023-05-14T05:30:11.568Z,9.68
2023-05-14T05:32:39.002Z,16.23
2023-05-14T05:35:06.589Z,10.27
2023-05-14T05:37:33.894Z,10.57
2023-05-14T05:40:01.264Z,10.37
2023-05-14T05:42:28.685Z,11.45
2023-05-14T05:44:56.365Z,8.75
2023-05-14T05:47:23.767Z,12.07
2023-05-14T05:49:51.075Z,10.75
2023-05-14T05:52:18.430Z,9.37
2023-05-14T05:54:45.749Z,10.90
2023-05-14T05:57:13.113Z,11.82
2023-05-14T05:59:40.390Z,8.18
2023-05-14T06:02:07.773Z,9.48
2023-05-14T06:04:35.162Z,14.13
2023-05-14T06:07:02.575Z,11.52
2023-05-14T06:09:29.930Z,7.43
2023-05-14T06:11:57.223Z,9.90
2023-05-14T06:14:24.489Z,6.97
2023-05-14T06:16:51.815Z,11.07
2023-05-14T06:19:19.455Z,10.20
2023-05-14T06:21:46.797Z,9.63
2023-05-14T06:24:14.152Z,8.55
2023-05-14T06:26:41.451Z,8.80
2023-05-14T06:29:08.734Z,9.97
2023-05-14T06:31:36.123Z,10.23
2023-05-14T06:34:03.696Z,10.98
2023-05-14T06:36:31.030Z,9.43
2023-05-14T06:38:58.411Z,10.57
2023-05-14T06:41:26.180Z,11.37
2023-05-14T06:43:53.481Z,12.20
2023-05-14T06:46:20.809Z,11.45
2023-05-14T06:48:48.211Z,11.82
2023-05-14T06:51:15.652Z,11.32
2023-05-14T06:53:42.937Z,7.40
2023-05-14T06:56:10.330Z,9.95
2023-05-14T06:58:37.684Z,12.25
2023-05-14T07:01:05.110Z,10.45
2023-05-14T07:03:32.414Z,7.50
2023-05-14T07:05:59.795Z,9.53
2023-05-14T07:08:27.077Z,12.73
2023-05-14T07:10:54.406Z,8.93
2023-05-14T07:13:21.806Z,12.48
2023-05-14T07:15:49.072Z,9.32
2023-05-14T07:18:16.406Z,8.80
2023-05-14T07:20:43.733Z,10.13
2023-05-14T07:23:11.159Z,10.23
2023-05-14T07:25:38.527Z,10.90
2023-05-14T07:28:05.881Z,13.05
2023-05-14T07:30:33.179Z,7.10
2023-05-14T07:33:00.575Z,7.35
2023-05-14T07:35:27.957Z,8.07
2023-05-14T07:37:55.283Z,9.65
2023-05-14T07:40:22.913Z,11.90
2023-05-14T07:42:50.469Z,9.27
2023-05-14T07:45:17.840Z,7.78
2023-05-14T07:47:45.263Z,10.82
2023-05-14T07:50:12.992Z,12.32
2023-05-14T07:52:40.612Z,9.80
2023-05-14T07:55:08.477Z,9.80
2023-05-14T07:57:35.751Z,6.90
2023-05-14T08:00:03.083Z,9.20
2023-05-14T08:02:39.885Z,7.50
2023-05-14T08:05:07.589Z,9.38
2023-05-14T08:07:34.846Z,12.93
2023-05-14T08:10:02.378Z,8.35
2023-05-14T08:12:30.345Z,9.98
2023-05-14T08:14:57.659Z,9.80
2023-05-14T08:17:25.047Z,8.02
2023-05-14T08:19:52.443Z,11.23
2023-05-14T08:22:19.719Z,7.55
2023-05-14T08:24:47.012Z,7.93
2023-05-14T08:27:14.446Z,7.50
2023-05-14T08:29:41.757Z,7.85
2023-05-14T08:32:21.972Z,7.70
2023-05-14T08:34:50.817Z,8.32
2023-05-14T08:37:18.651Z,8.85
2023-05-14T08:39:45.924Z,10.52
2023-05-14T08:42:13.952Z,6.78
2023-05-14T08:44:48.968Z,6.10
2023-05-14T08:47:16.862Z,9.93
2023-05-14T08:49:47.125Z,8.60
2023-05-14T08:52:14.555Z,12.50
2023-05-14T08:54:41.893Z,9.02
2023-05-14T08:57:10.639Z,10.50
2023-05-14T08:59:38.352Z,10.38
2023-05-14T09:02:06.695Z,7.68
2023-05-14T09:04:34.594Z,8.68
2023-05-14T09:07:04.127Z,8.10
2023-05-14T09:09:31.753Z,8.90
2023-05-14T09:11:59.334Z,9.02
2023-05-14T09:14:26.822Z,5.72
2023-05-14T09:16:54.847Z,8.60
2023-05-14T09:19:22.482Z,7.78
2023-05-14T09:21:50.354Z,7.77
2023-05-14T09:24:22.453Z,8.30
2023-05-14T09:26:56.551Z,9.00
2023-05-14T09:29:27.731Z,7.00
2023-05-14T09:31:55.838Z,9.38
2023-05-14T09:34:30.735Z,10.07
2023-05-14T09:36:59.214Z,7.55
2023-05-14T09:39:26.903Z,9.23
2023-05-14T09:41:54.967Z,8.07
2023-05-14T09:44:22.670Z,5.88
2023-05-14T09:46:50.207Z,7.30
2023-05-14T09:49:17.674Z,10.43
2023-05-14T09:51:45.366Z,7.45
2023-05-14T09:54:12.811Z,8.48
2023-05-14T09:56:40.316Z,5.78
2023-05-14T09:59:07.620Z,8.20
2023-05-14T10:01:35.227Z,7.80
2023-05-14T10:04:04.572Z,10.38
2023-05-14T10:06:34.012Z,9.57
2023-05-14T10:09:04.024Z,9.95
2023-05-14T10:11:35.678Z,8.73
2023-05-14T10:14:17.924Z,6.85
2023-05-14T10:16:50.767Z,10.60
2023-05-14T10:19:19.116Z,8.15
2023-05-14T10:21:49.273Z,7.32
2023-05-14T10:24:16.828Z,4.90
2023-05-14T10:26:44.193Z,7.05
2023-05-14T10:29:11.928Z,7.35
2023-05-14T10:31:45.614Z,9.98
2023-05-14T10:34:32.698Z,8.43
2023-05-14T10:37:00.935Z,6.20
2023-05-14T10:39:41.413Z,8.25
2023-05-14T10:42:19.511Z,9.73
2023-05-14T10:44:51.595Z,10.43
2023-05-14T10:47:19.228Z,6.95
2023-05-14T10:49:50.642Z,11.13
2023-05-14T10:52:19.631Z,11.20
2023-05-14T10:54:51.690Z,8.18
2023-05-14T10:57:19.794Z,7.22
2023-05-14T10:59:53.222Z,8.10
2023-05-14T11:02:23.539Z,5.57
2023-05-14T11:04:59.149Z,8.00
2023-05-14T11:07:35.748Z,7.35
2023-05-14T11:10:03.460Z,8.27
2023-05-14T11:12:30.879Z,5.82
2023-05-14T11:14:59.264Z,8.57
2023-05-14T11:17:27.488Z,7.60
2023-05-14T11:19:55.446Z,8.40
2023-05-14T11:22:23.211Z,8.52
2023-05-14T11:24:50.588Z,6.50
2023-05-14T11:27:18.633Z,7.83
2023-05-14T11:29:46.623Z,6.43
2023-05-14T11:32:14.546Z,7.90
2023-05-14T11:34:44.891Z,8.90
2023-05-14T11:37:13.001Z,5.15
2023-05-14T11:39:40.881Z,6.53
2023-05-14T11:42:12.342Z,8.45
2023-05-14T11:44:39.999Z,6.95
2023-05-14T11:47:07.549Z,9.98
2023-05-14T11:49:37.461Z,9.40
2023-05-14T11:52:10.134Z,7.73
2023-05-14T11:54:37.488Z,11.00
2023-05-14T11:57:23.088Z,5.97
2023-05-14T11:59:57.203Z,10.63
2023-05-14T12:02:29.362Z,10.43
2023-05-14T12:04:56.909Z,8.60
2023-05-14T12:07:24.274Z,10.57
2023-05-14T12:09:51.709Z,5.93
2023-05-14T12:12:20.040Z,8.45
2023-05-14T12:14:47.432Z,8.52
2023-05-14T12:17:19.050Z,6.43
2023-05-14T12:19:47.666Z,7.47
2023-05-14T12:22:16.182Z,7.95
2023-05-14T12:24:56.651Z,4.90
2023-05-14T12:27:27.774Z,6.25
2023-05-14T12:30:16.819Z,5.50
2023-05-14T12:32:51.483Z,8.75
2023-05-14T12:35:19.333Z,6.68
2023-05-14T12:37:46.764Z,8.05
2023-05-14T12:40:14.339Z,6.53
2023-05-14T12:42:41.698Z,5.63
2023-05-14T12:45:09.115Z,8.07
2023-05-14T12:47:37.046Z,13.00
2023-05-14T12:50:05.177Z,14.00
2023-05-14T12:52:38.828Z,6.18
2023-05-14T12:55:07.768Z,7.73
2023-05-14T12:57:35.633Z,6.93
2023-05-14T13:00:07.066Z,6.82
2023-05-14T13:02:42.703Z,7.88
2023-05-14T13:05:11.374Z,5.32
2023-05-14T13:07:39.139Z,8.30
2023-05-14T13:10:07.033Z,7.55
2023-05-14T13:12:34.550Z,4.78
2023-05-14T13:15:01.937Z,6.13
2023-05-14T13:17:29.332Z,5.47
2023-05-14T13:19:56.689Z,6.60
2023-05-14T13:22:23.969Z,6.22
2023-05-14T13:24:51.279Z,6.95
2023-05-14T13:27:18.670Z,4.63
2023-05-14T13:29:45.972Z,7.55
2023-05-14T13:32:13.255Z,6.50
2023-05-14T13:34:40.615Z,5.60
2023-05-14T13:37:07.894Z,4.85
2023-05-14T13:39:35.343Z,5.55
2023-05-14T13:42:02.842Z,6.82
2023-05-14T13:44:30.384Z,4.50
2023-05-14T13:46:57.750Z,7.43
2023-05-14T13:49:25.067Z,5.72
2023-05-14T13:51:52.384Z,4.97
2023-05-14T13:54:19.708Z,5.30
2023-05-14T13:56:46.998Z,4.83
2023-05-14T13:59:15.118Z,6.72
2023-05-14T14:01:45.206Z,5.65
2023-05-14T14:04:12.656Z,8.15
2023-05-14T14:06:39.948Z,5.88
2023-05-14T14:09:07.206Z,8.90
2023-05-14T14:11:34.558Z,7.07
2023-05-14T14:14:01.776Z,8.07
2023-05-14T14:16:29.279Z,5.65
2023-05-14T14:18:57.424Z,6.63
2023-05-14T14:21:24.944Z,4.27
2023-05-14T14:23:52.361Z,7.53
2023-05-14T14:26:19.792Z,5.38
2023-05-14T14:28:47.184Z,6.45
2023-05-14T14:31:14.565Z,7.85
2023-05-14T14:33:41.926Z,5.73
2023-05-14T14:36:09.273Z,4.30
2023-05-14T14:38:36.626Z,5.05
2023-05-14T14:41:04.041Z,4.80
2023-05-14T14:43:31.700Z,4.80
2023-05-14T14:45:59.074Z,4.67
2023-05-14T14:48:41.264Z,4.93
2023-05-14T14:51:09.234Z,7.03
2023-05-14T14:53:37.313Z,6.13
2023-05-14T14:56:05.002Z,7.22
2023-05-14T14:58:32.675Z,8.43
2023-05-14T15:01:01.461Z,6.95
2023-05-14T15:03:29.187Z,6.35
2023-05-14T15:05:56.667Z,4.90
2023-05-14T15:08:26.703Z,8.13
2023-05-14T15:10:54.680Z,9.60
2023-05-14T15:13:22.035Z,9.73
2023-05-14T15:15:51.073Z,8.95
2023-05-14T15:18:18.536Z,8.85
2023-05-14T15:20:45.885Z,7.28
2023-05-14T15:23:13.219Z,5.17
2023-05-14T15:25:40.675Z,6.38
2023-05-14T15:28:08.005Z,5.30
2023-05-14T15:30:35.522Z,10.13
2023-05-14T15:33:03.255Z,6.18
2023-05-14T15:35:30.673Z,5.57
2023-05-14T15:37:58.019Z,5.85
2023-05-14T15:40:25.484Z,6.07
2023-05-14T15:42:52.934Z,7.57
2023-05-14T15:45:20.373Z,10.02
2023-05-14T15:47:47.782Z,8.43
2023-05-14T15:50:15.117Z,9.77
2023-05-14T15:52:42.608Z,8.50
2023-05-14T15:55:10.332Z,11.90
2023-05-14T15:57:37.758Z,9.23
2023-05-14T16:00:11.058Z,5.30
2023-05-14T16:02:39.077Z,7.75
2023-05-14T16:05:07.588Z,6.38
2023-05-14T16:07:34.997Z,11.70
2023-05-14T16:10:02.396Z,12.00
2023-05-14T16:12:29.795Z,8.87
2023-05-14T16:14:57.713Z,10.07
2023-05-14T16:17:25.235Z,7.60
2023-05-14T16:19:55.342Z,9.32
2023-05-14T16:22:23.558Z,6.30
2023-05-14T16:24:51.060Z,9.87
2023-05-14T16:27:21.497Z,11.77
2023-05-14T16:29:48.837Z,8.60
2023-05-14T16:32:16.326Z,12.77
2023-05-14T16:34:49.855Z,11.60
2023-05-14T16:37:19.865Z,9.40
2023-05-14T16:39:47.292Z,14.90
2023-05-14T16:42:14.661Z,11.40
2023-05-14T16:44:41.996Z,9.02
2023-05-14T16:47:09.356Z,10.88
2023-05-14T16:49:36.643Z,8.10
2023-05-14T16:52:04.009Z,14.30
2023-05-14T16:54:31.449Z,9.77
2023-05-14T16:56:58.756Z,8.90
2023-05-14T16:59:26.046Z,11.43
2023-05-14T17:01:53.508Z,13.13
2023-05-14T17:04:21.260Z,11.40
2023-05-14T17:06:48.649Z,10.63
2023-05-14T17:09:16.748Z,16.38
2023-05-14T17:11:44.139Z,12.63
2023-05-14T17:14:11.505Z,10.33
2023-05-14T17:16:40.571Z,12.90
2023-05-14T17:19:07.983Z,9.90
2023-05-14T17:21:35.328Z,12.10
2023-05-14T17:24:02.631Z,9.68
2023-05-14T17:26:30.130Z,9.47
2023-05-14T17:28:57.456Z,8.93
2023-05-14T17:31:24.848Z,7.47
2023-05-14T17:33:52.219Z,9.73
2023-05-14T17:36:19.499Z,7.10
2023-05-14T17:38:46.872Z,13.80
2023-05-14T17:41:14.130Z,9.80
2023-05-14T17:43:41.485Z,7.80
2023-05-14T17:46:08.753Z,14.18
2023-05-14T17:48:36.151Z,11.77
2023-05-14T17:51:03.441Z,8.60
2023-05-14T17:53:30.724Z,14.68
2023-05-14T17:55:58.071Z,8.43
2023-05-14T17:58:25.409Z,9.57
2023-05-14T18:00:52.995Z,10.50
2023-05-14T18:03:20.667Z,12.07
2023-05-14T18:05:48.124Z,11.25
2023-05-14T18:08:15.476Z,9.73
2023-05-14T18:10:42.848Z,7.40
2023-05-14T18:13:10.100Z,8.38
2023-05-14T18:15:37.830Z,8.97
2023-05-14T18:18:05.399Z,8.05
2023-05-14T18:20:34.155Z,7.68
2023-05-14T18:23:03.153Z,9.55
2023-05-14T18:25:30.591Z,9.82
2023-05-14T18:27:57.959Z,10.37
2023-05-14T18:30:25.285Z,12.57
2023-05-14T18:32:52.663Z,9.63
2023-05-14T18:35:20.073Z,14.95
2023-05-14T18:37:47.436Z,11.18
2023-05-14T18:40:17.750Z,12.00
2023-05-14T18:42:45.895Z,9.57
2023-05-14T18:45:13.264Z,7.80
2023-05-14T18:47:40.992Z,9.60
2023-05-14T18:50:08.707Z,5.97
2023-05-14T18:52:36.130Z,6.43
2023-05-14T18:55:03.412Z,6.65
2023-05-14T18:57:32.713Z,7.65
2023-05-14T19:00:04.057Z,11.75
2023-05-14T19:02:31.599Z,8.52
2023-05-14T19:04:59.013Z,7.93
2023-05-14T19:07:27.911Z,6.97
2023-05-14T19:09:55.412Z,6.57
2023-05-14T19:12:22.678Z,4.57
2023-05-14T19:14:49.920Z,9.77
2023-05-14T19:17:19.860Z,5.83
2023-05-14T19:19:47.887Z,9.98
2023-05-14T19:22:15.223Z,8.45
2023-05-14T19:24:42.558Z,13.18
2023-05-14T19:27:10.103Z,26.70
2023-05-14T19:29:37.727Z,17.47
2023-05-14T19:32:05.396Z,14.82
2023-05-14T19:34:32.807Z,12.70
2023-05-14T19:37:00.582Z,11.20
2023-05-14T19:39:27.936Z,11.75
2023-05-14T19:41:55.453Z,6.83
2023-05-14T19:44:22.746Z,6.97
2023-05-14T19:46:50.088Z,11.63
2023-05-14T19:49:17.397Z,6.80
2023-05-14T19:51:44.767Z,9.13
2023-05-14T19:54:12.085Z,8.73
2023-05-14T19:56:39.499Z,6.60
2023-05-14T19:59:06.949Z,9.48
2023-05-14T20:01:34.885Z,7.82
2023-05-14T20:04:02.425Z,6.70
2023-05-14T20:06:30.208Z,8.83
2023-05-14T20:08:57.500Z,7.30
2023-05-14T20:11:24.905Z,7.13
2023-05-14T20:13:52.235Z,8.02
2023-05-14T20:16:19.798Z,7.97
2023-05-14T20:18:47.295Z,7.27
2023-05-14T20:21:14.820Z,7.38
2023-05-14T20:23:42.241Z,7.78
2023-05-14T20:26:09.495Z,7.80
2023-05-14T20:28:36.866Z,10.00
2023-05-14T20:31:04.297Z,7.17
2023-05-14T20:33:31.817Z,6.85
2023-05-14T20:35:59.315Z,8.32
2023-05-14T20:38:29.374Z,9.00
2023-05-14T20:40:56.818Z,11.38
2023-05-14T20:43:24.328Z,6.80
2023-05-14T20:45:51.600Z,7.63
2023-05-14T20:48:21.221Z,7.80
2023-05-14T20:50:48.565Z,6.47
2023-05-14T20:53:15.820Z,8.43
2023-05-14T20:55:44.777Z,9.07
2023-05-14T20:58:12.160Z,6.15
2023-05-14T21:00:39.557Z,6.43
2023-05-14T21:03:07.144Z,8.25
2023-05-14T21:05:34.915Z,8.07
2023-05-14T21:08:02.293Z,6.00
2023-05-14T21:10:29.666Z,6.22
2023-05-14T21:12:57.064Z,8.55
2023-05-14T21:15:24.559Z,8.73
2023-05-14T21:17:52.105Z,11.55
2023-05-14T21:20:19.493Z,6.10
2023-05-14T21:22:46.812Z,7.43
2023-05-14T21:25:14.218Z,6.50
2023-05-14T21:27:41.588Z,8.85
2023-05-14T21:30:09.393Z,10.00
2023-05-14T21:32:36.859Z,8.03
2023-05-14T21:35:05.367Z,6.85
2023-05-14T21:37:32.828Z,10.25
2023-05-14T21:40:00.241Z,12.98
2023-05-14T21:42:27.646Z,8.65
2023-05-14T21:44:55.060Z,10.00
2023-05-14T21:47:22.462Z,7.82
2023-05-14T21:49:49.872Z,7.10
2023-05-14T21:52:17.313Z,9.32
2023-05-14T21:54:44.750Z,9.68
2023-05-14T21:57:12.180Z,8.03
2023-05-14T21:59:39.560Z,8.05
2023-05-14T22:02:07.869Z,7.60
2023-05-14T22:04:35.859Z,9.98
2023-05-14T22:07:03.404Z,8.88
2023-05-14T22:09:30.979Z,8.53
2023-05-14T22:11:58.739Z,10.38
2023-05-14T22:14:27.428Z,13.32
2023-05-14T22:16:55.027Z,7.85
2023-05-14T22:19:22.643Z,11.48
2023-05-14T22:21:50.101Z,8.70
2023-05-14T22:24:17.631Z,13.40
2023-05-14T22:26:45.226Z,11.25
2023-05-14T22:29:12.760Z,8.88
2023-05-14T22:31:40.512Z,10.68
2023-05-14T22:34:08.102Z,8.67
2023-05-14T22:36:35.541Z,7.80
2023-05-14T22:39:02.903Z,12.90
2023-05-14T22:41:30.759Z,9.60
2023-05-14T22:43:58.147Z,10.80
2023-05-14T22:46:25.489Z,8.53
2023-05-14T22:48:52.916Z,10.02
2023-05-14T22:51:20.260Z,11.77
2023-05-14T22:53:47.629Z,14.60
2023-05-14T22:56:14.987Z,11.90
2023-05-14T22:58:42.288Z,10.60
2023-05-14T23:01:09.672Z,9.70
2023-05-14T23:03:36.963Z,10.75
2023-05-14T23:06:04.451Z,9.85
2023-05-14T23:08:31.770Z,12.55
2023-05-14T23:10:59.167Z,16.33
2023-05-14T23:13:26.418Z,13.25
2023-05-14T23:15:53.863Z,13.10
2023-05-14T23:18:21.339Z,16.08
2023-05-14T23:20:48.939Z,13.00
2023-05-14T23:23:16.464Z,14.83
2023-05-14T23:25:44.072Z,14.70
2023-05-14T23:28:11.567Z,12.63
2023-05-14T23:30:38.935Z,12.52
2023-05-14T23:33:07.033Z,14.23
2023-05-14T23:35:34.543Z,14.80
2023-05-14T23:38:02.062Z,16.60
2023-05-14T23:40:29.370Z,16.33
2023-05-14T23:42:59.349Z,21.30
2023-05-14T23:45:30.043Z,18.13
2023-05-14T23:47:59.205Z,17.73
2023-05-14T23:50:26.647Z,17.65
2023-05-14T23:52:54.561Z,19.30
2023-05-14T23:55:22.321Z,20.95
2023-05-14T23:57:50.249Z,21.30
